createdAt,value
2023-05-14T00:01:12.238Z,12.30
2023-05-14T00:03:41.123Z,12.20
2023-05-14T00:06:09.567Z,12.20
2023-05-14T00:08:36.886Z,12.20
2023-05-14T00:11:04.010Z,12.20
2023-05-14T00:13:31.036Z,12.10
2023-05-14T00:15:58.219Z,12.10
2023-05-14T00:18:25.666Z,12.10
2023-05-14T00:20:54.979Z,12.10
2023-05-14T00:23:22.961Z,11.90
2023-05-14T00:25:50.600Z,11.80
2023-05-14T00:28:17.714Z,11.90
2023-05-14T00:30:45.163Z,11.80
2023-05-14T00:33:12.273Z,11.90
2023-05-14T00:35:39.358Z,11.90
2023-05-14T00:38:06.572Z,11.90
2023-05-14T00:40:34.284Z,11.90
2023-05-14T00:43:01.414Z,11.60
2023-05-14T00:45:28.643Z,11.60
2023-05-14T00:47:56.061Z,11.50
2023-05-14T00:50:23.500Z,11.60
2023-05-14T00:52:51.101Z,11.50
2023-05-14T00:55:19.381Z,11.60
2023-05-14T00:57:46.991Z,11.60
2023-05-14T01:00:14.450Z,11.60
2023-05-14T01:02:41.715Z,11.70
2023-05-14T01:05:09.562Z,11.70
2023-05-14T01:07:36.566Z,11.60
2023-05-14T01:10:17.490Z,11.60
2023-05-14T01:12:59.329Z,11.60
2023-05-14T01:15:29.808Z,11.50
2023-05-14T01:18:11.033Z,11.50
2023-05-14T01:20:38.177Z,11.50
2023-05-14T01:23:05.346Z,11.50
2023-05-14T01:25:32.536Z,11.40
2023-05-14T01:28:19.538Z,11.40
2023-05-14T01:30:50.385Z,11.40
2023-05-14T01:33:19.390Z,11.30
2023-05-14T01:35:48.323Z,11.30
2023-05-14T01:38:18.732Z,11.20
2023-05-14T01:40:48.051Z,11.20
2023-05-14T01:43:16.276Z,11.10
2023-05-14T01:45:44.348Z,11.10
2023-05-14T01:48:11.964Z,11.10
2023-05-14T01:50:39.133Z,11.20
2023-05-14T01:53:06.522Z,11.30
2023-05-14T01:55:33.604Z,11.20
2023-05-14T01:58:01.018Z,11.10
2023-05-14T02:00:28.272Z,11.10
2023-05-14T02:02:55.276Z,11.10
2023-05-14T02:05:23.656Z,11.20
2023-05-14T02:07:51.421Z,11.10
2023-05-14T02:10:18.571Z,11.10
2023-05-14T02:12:49.593Z,11.10
2023-05-14T02:15:17.040Z,11.20
2023-05-14T02:17:44.145Z,11.20
2023-05-14T02:20:11.793Z,11.00
2023-05-14T02:22:38.911Z,11.00
2023-05-14T02:25:06.459Z,11.00
2023-05-14T02:27:33.998Z,11.00
2023-05-14T02:30:01.184Z,11.10
2023-05-14T02:32:28.694Z,11.10
2023-05-14T02:34:55.849Z,11.10
2023-05-14T02:37:22.878Z,11.00
2023-05-14T02:39:50.094Z,11.00
2023-05-14T02:42:17.159Z,11.10
2023-05-14T02:44:44.238Z,11.10
2023-05-14T02:47:11.437Z,11.00
2023-05-14T02:49:38.601Z,10.80
2023-05-14T02:52:05.949Z,10.90
2023-05-14T02:54:33.076Z,10.90
2023-05-14T02:57:00.214Z,10.90
2023-05-14T02:59:27.703Z,11.00
2023-05-14T03:01:55.403Z,10.90
2023-05-14T03:04:23.037Z,10.70
2023-05-14T03:06:50.180Z,10.80
2023-05-14T03:09:17.170Z,10.70
2023-05-14T03:11:44.327Z,10.90
2023-05-14T03:14:11.428Z,10.90
2023-05-14T03:16:40.139Z,10.80
2023-05-14T03:19:07.371Z,10.90
2023-05-14T03:21:34.596Z,10.80
2023-05-14T03:24:01.634Z,10.80
2023-05-14T03:26:28.761Z,10.80
2023-05-14T03:28:56.031Z,10.80
2023-05-14T03:31:23.218Z,10.80
2023-05-14T03:33:50.310Z,10.60
2023-05-14T03:36:17.340Z,10.60
2023-05-14T03:38:44.383Z,10.60
2023-05-14T03:41:11.467Z,10.60
2023-05-14T03:43:38.598Z,10.50
2023-05-14T03:46:05.723Z,10.60
2023-05-14T03:48:32.858Z,10.60
2023-05-14T03:50:59.921Z,10.50
2023-05-14T03:53:28.427Z,10.50
2023-05-14T03:55:55.460Z,10.40
2023-05-14T03:58:22.572Z,10.30
2023-05-14T04:00:49.736Z,10.40
2023-05-14T04:03:17.138Z,10.10
2023-05-14T04:05:44.349Z,10.10
2023-05-14T04:08:11.397Z,10.10
2023-05-14T04:10:38.656Z,10.20
2023-05-14T04:13:06.060Z,10.20
2023-05-14T04:15:35.996Z,10.10
2023-05-14T04:18:03.153Z,10.30
2023-05-14T04:20:30.265Z,10.30
2023-05-14T04:22:57.354Z,10.20
2023-05-14T04:25:24.403Z,10.20
2023-05-14T04:27:51.681Z,10.30
2023-05-14T04:30:18.899Z,10.30
2023-05-14T04:32:45.940Z,10.50
2023-05-14T04:35:13.156Z,10.50
2023-05-14T04:37:40.638Z,10.40
2023-05-14T04:40:09.154Z,10.50
2023-05-14T04:42:36.347Z,10.30
2023-05-14T04:45:05.361Z,10.40
2023-05-14T04:47:32.789Z,10.40
2023-05-14T04:49:59.850Z,10.40
2023-05-14T04:52:26.980Z,10.50
2023-05-14T04:54:54.180Z,10.20
2023-05-14T04:57:21.837Z,10.00
2023-05-14T04:59:49.169Z,9.80
2023-05-14T05:02:16.399Z,9.80
2023-05-14T05:04:43.699Z,10.00
2023-05-14T05:07:11.053Z,10.10
2023-05-14T05:09:38.418Z,10.20
2023-05-14T05:12:06.035Z,10.20
2023-05-14T05:14:33.116Z,10.30
2023-05-14T05:17:00.156Z,10.30
2023-05-14T05:19:39.588Z,10.40
2023-05-14T05:22:10.497Z,10.40
2023-05-14T05:24:37.746Z,10.50
2023-05-14T05:27:05.616Z,10.60
2023-05-14T05:29:32.991Z,10.60
2023-05-14T05:32:00.229Z,10.70
2023-05-14T05:34:27.693Z,10.70
2023-05-14T05:36:54.689Z,10.70
2023-05-14T05:39:22.022Z,10.70
2023-05-14T05:41:49.162Z,10.80
2023-05-14T05:44:16.182Z,10.90
2023-05-14T05:46:43.291Z,10.90
2023-05-14T05:49:10.372Z,11.00
2023-05-14T05:51:37.399Z,11.00
2023-05-14T05:54:04.504Z,11.10
2023-05-14T05:56:31.877Z,11.20
2023-05-14T05:58:59.041Z,11.20
2023-05-14T06:01:26.774Z,11.20
2023-05-14T06:03:53.806Z,11.30
2023-05-14T06:06:21.796Z,11.30
2023-05-14T06:08:49.109Z,11.40
2023-05-14T06:11:17.114Z,11.50
2023-05-14T06:13:44.193Z,11.50
2023-05-14T06:16:11.391Z,11.50
2023-05-14T06:18:38.459Z,11.60
2023-05-14T06:21:05.630Z,11.60
2023-05-14T06:23:33.204Z,11.60
2023-05-14T06:26:00.338Z,11.70
2023-05-14T06:28:27.446Z,11.70
2023-05-14T06:30:54.517Z,11.80
2023-05-14T06:33:29.668Z,11.70
2023-05-14T06:36:07.893Z,11.80
2023-05-14T06:38:35.079Z,11.90
2023-05-14T06:41:02.238Z,11.90
2023-05-14T06:43:29.545Z,11.90
2023-05-14T06:45:56.652Z,11.90
2023-05-14T06:48:23.994Z,12.00
2023-05-14T06:50:51.272Z,12.00
2023-05-14T06:53:18.353Z,12.00
2023-05-14T06:55:48.239Z,12.10
2023-05-14T06:58:15.626Z,12.10
2023-05-14T07:00:42.954Z,12.20
2023-05-14T07:03:10.145Z,12.30
2023-05-14T07:05:37.266Z,12.30
2023-05-14T07:08:04.500Z,12.20
2023-05-14T07:10:31.814Z,12.20
2023-05-14T07:12:58.844Z,12.30
2023-05-14T07:15:25.981Z,12.30
2023-05-14T07:17:53.037Z,12.30
2023-05-14T07:20:20.233Z,12.40
2023-05-14T07:22:47.259Z,12.40
2023-05-14T07:25:14.365Z,12.40
2023-05-14T07:27:41.493Z,12.40
2023-05-14T07:30:08.995Z,12.50
2023-05-14T07:32:36.080Z,12.40
2023-05-14T07:35:03.929Z,12.40
2023-05-14T07:37:31.003Z,12.30
2023-05-14T07:39:58.129Z,12.40
2023-05-14T07:42:35.315Z,12.40
2023-05-14T07:45:04.941Z,12.40
2023-05-14T07:47:32.257Z,12.40
2023-05-14T07:49:59.618Z,12.50
2023-05-14T07:52:26.706Z,12.60
2023-05-14T07:54:53.927Z,12.60
2023-05-14T07:57:22.072Z,12.70
2023-05-14T07:59:49.320Z,12.70
2023-05-14T08:02:16.988Z,12.80
2023-05-14T08:04:44.967Z,12.70
2023-05-14T08:07:12.119Z,12.60
2023-05-14T08:09:39.148Z,12.70
2023-05-14T08:12:06.807Z,12.80
2023-05-14T08:14:33.832Z,12.80
2023-05-14T08:17:01.011Z,12.80
2023-05-14T08:19:28.494Z,12.80
2023-05-14T08:21:55.690Z,12.80
2023-05-14T08:24:22.789Z,12.90
2023-05-14T08:26:49.847Z,12.90
2023-05-14T08:29:17.033Z,12.80
2023-05-14T08:31:44.437Z,12.90
2023-05-14T08:34:11.482Z,12.90
2023-05-14T08:36:39.355Z,12.80
2023-05-14T08:39:07.877Z,12.80
2023-05-14T08:41:35.550Z,12.80
2023-05-14T08:44:14.085Z,12.70
2023-05-14T08:46:41.944Z,12.60
2023-05-14T08:49:45.737Z,12.70
2023-05-14T08:52:13.133Z,12.70
2023-05-14T08:54:40.793Z,12.80
2023-05-14T08:57:10.744Z,13.00
2023-05-14T08:59:38.222Z,13.20
2023-05-14T09:02:07.031Z,13.40
2023-05-14T09:04:36.139Z,13.60
2023-05-14T09:07:04.177Z,13.80
2023-05-14T09:09:31.739Z,14.10
2023-05-14T09:11:58.942Z,14.50
2023-05-14T09:14:26.388Z,14.80
2023-05-14T09:16:54.815Z,15.00
2023-05-14T09:19:22.304Z,15.30
2023-05-14T09:21:50.392Z,15.20
2023-05-14T09:24:22.124Z,15.00
2023-05-14T09:26:57.536Z,14.60
2023-05-14T09:29:26.227Z,14.80
2023-05-14T09:31:54.321Z,15.10
2023-05-14T09:34:28.711Z,15.60
2023-05-14T09:36:59.441Z,15.50
2023-05-14T09:39:27.242Z,16.10
2023-05-14T09:41:54.879Z,15.80
2023-05-14T09:44:22.946Z,15.70
2023-05-14T09:46:50.985Z,15.80
2023-05-14T09:49:18.596Z,16.10
2023-05-14T09:51:45.776Z,15.90
2023-05-14T09:54:12.896Z,15.90
2023-05-14T09:56:40.086Z,16.00
2023-05-14T09:59:07.146Z,15.80
2023-05-14T10:01:34.900Z,15.90
2023-05-14T10:04:06.520Z,16.40
2023-05-14T10:06:38.105Z,17.00
2023-05-14T10:09:10.037Z,16.90
2023-05-14T10:11:38.664Z,17.00
2023-05-14T10:14:29.841Z,17.00
2023-05-14T10:16:59.732Z,16.80
2023-05-14T10:19:28.143Z,16.50
2023-05-14T10:22:05.238Z,16.20
2023-05-14T10:24:33.010Z,15.90
2023-05-14T10:27:00.501Z,16.10
2023-05-14T10:29:38.219Z,16.10
2023-05-14T10:32:07.384Z,16.00
2023-05-14T10:34:38.726Z,15.90
2023-05-14T10:37:08.737Z,15.90
2023-05-14T10:40:00.063Z,15.80
2023-05-14T10:42:29.020Z,15.80
2023-05-14T10:45:07.552Z,16.10
2023-05-14T10:47:39.739Z,16.20
2023-05-14T10:50:09.232Z,16.00
2023-05-14T10:52:37.267Z,15.90
2023-05-14T10:55:10.339Z,15.70
2023-05-14T10:57:39.383Z,15.70
2023-05-14T11:00:08.835Z,15.70
2023-05-14T11:02:38.227Z,15.70
2023-05-14T11:05:11.674Z,15.80
2023-05-14T11:07:44.288Z,15.80
2023-05-14T11:10:16.496Z,15.80
2023-05-14T11:12:48.867Z,15.80
2023-05-14T11:15:21.777Z,15.80
2023-05-14T11:17:50.469Z,15.80
2023-05-14T11:20:18.765Z,15.80
2023-05-14T11:22:47.337Z,15.80
2023-05-14T11:25:15.340Z,15.80
2023-05-14T11:27:44.563Z,15.70
2023-05-14T11:30:16.859Z,15.80
2023-05-14T11:32:48.609Z,15.80
2023-05-14T11:35:16.843Z,15.80
2023-05-14T11:37:49.502Z,15.80
2023-05-14T11:40:17.037Z,15.80
2023-05-14T11:42:44.467Z,15.80
2023-05-14T11:45:13.029Z,15.70
2023-05-14T11:47:42.854Z,15.80
2023-05-14T11:50:11.211Z,16.00
2023-05-14T11:52:41.224Z,16.30
2023-05-14T11:55:12.898Z,16.30
2023-05-14T11:57:41.157Z,16.30
2023-05-14T12:00:21.310Z,16.20
2023-05-14T12:02:52.108Z,16.10
2023-05-14T12:05:19.423Z,16.10
2023-05-14T12:07:47.652Z,16.30
2023-05-14T12:10:15.231Z,17.10
2023-05-14T12:12:47.193Z,18.20
2023-05-14T12:15:19.195Z,18.60
2023-05-14T12:17:52.314Z,19.10
2023-05-14T12:20:19.716Z,19.50
2023-05-14T12:22:46.839Z,19.20
2023-05-14T12:25:14.357Z,18.50
2023-05-14T12:27:44.856Z,17.90
2023-05-14T12:30:21.382Z,17.80
2023-05-14T12:32:52.728Z,17.60
2023-05-14T12:35:21.591Z,17.40
2023-05-14T12:37:48.707Z,17.30
2023-05-14T12:40:15.758Z,17.10
2023-05-14T12:42:42.817Z,17.00
2023-05-14T12:45:10.340Z,17.00
2023-05-14T12:47:37.584Z,16.70
2023-05-14T12:50:06.138Z,16.60
2023-05-14T12:52:38.487Z,16.50
2023-05-14T12:55:09.862Z,16.50
2023-05-14T12:57:39.078Z,16.40
2023-05-14T13:00:08.481Z,16.30
2023-05-14T13:02:42.569Z,16.30
2023-05-14T13:05:11.677Z,16.20
2023-05-14T13:07:39.266Z,16.10
2023-05-14T13:10:07.064Z,16.00
2023-05-14T13:12:34.535Z,15.90
2023-05-14T13:15:01.685Z,15.90
2023-05-14T13:17:28.886Z,16.00
2023-05-14T13:19:56.199Z,16.00
2023-05-14T13:22:23.212Z,16.00
2023-05-14T13:24:50.327Z,16.10
2023-05-14T13:27:17.362Z,16.20
2023-05-14T13:29:44.392Z,16.30
2023-05-14T13:32:11.698Z,16.20
2023-05-14T13:34:38.735Z,16.20
2023-05-14T13:37:05.837Z,16.30
2023-05-14T13:39:32.967Z,16.30
2023-05-14T13:42:00.075Z,16.30
2023-05-14T13:44:27.747Z,16.30
2023-05-14T13:46:55.004Z,16.30
2023-05-14T13:49:22.053Z,16.20
2023-05-14T13:51:49.141Z,16.20
2023-05-14T13:54:16.230Z,16.10
2023-05-14T13:56:43.266Z,16.20
2023-05-14T13:59:11.218Z,16.30
2023-05-14T14:01:38.377Z,16.30
2023-05-14T14:04:05.642Z,16.40
2023-05-14T14:06:33.386Z,16.40
2023-05-14T14:09:00.672Z,16.40
2023-05-14T14:11:28.095Z,16.40
2023-05-14T14:13:55.168Z,16.50
2023-05-14T14:16:22.220Z,16.40
2023-05-14T14:18:49.410Z,16.50
2023-05-14T14:21:18.393Z,16.50
2023-05-14T14:23:49.103Z,16.50
2023-05-14T14:26:16.231Z,16.40
2023-05-14T14:28:43.678Z,16.40
2023-05-14T14:31:11.243Z,16.30
2023-05-14T14:33:38.452Z,16.30
2023-05-14T14:36:06.131Z,16.40
2023-05-14T14:38:33.224Z,16.40
2023-05-14T14:41:02.989Z,16.30
2023-05-14T14:43:30.087Z,16.20
2023-05-14T14:45:57.180Z,16.20
2023-05-14T14:48:38.257Z,16.30
2023-05-14T14:51:07.132Z,16.10
2023-05-14T14:53:34.992Z,16.20
2023-05-14T14:56:02.285Z,16.10
2023-05-14T14:58:29.356Z,16.10
2023-05-14T15:00:57.559Z,16.10
2023-05-14T15:03:25.804Z,16.10
2023-05-14T15:05:53.761Z,16.10
2023-05-14T15:08:24.624Z,16.20
2023-05-14T15:10:52.161Z,16.10
2023-05-14T15:13:19.696Z,16.20
2023-05-14T15:15:50.742Z,16.20
2023-05-14T15:18:18.087Z,16.20
2023-05-14T15:20:45.329Z,16.40
2023-05-14T15:23:12.689Z,16.40
2023-05-14T15:25:39.994Z,16.40
2023-05-14T15:28:07.781Z,16.40
2023-05-14T15:30:35.237Z,16.50
2023-05-14T15:33:02.313Z,16.50
2023-05-14T15:35:29.443Z,16.50
2023-05-14T15:37:59.750Z,16.50
2023-05-14T15:40:28.105Z,16.50
2023-05-14T15:42:55.413Z,16.40
2023-05-14T15:45:22.572Z,16.30
2023-05-14T15:47:49.725Z,16.10
2023-05-14T15:50:16.810Z,16.10
2023-05-14T15:52:43.837Z,16.00
2023-05-14T15:55:10.962Z,16.00
2023-05-14T15:57:38.110Z,15.90
2023-05-14T16:00:11.470Z,15.90
2023-05-14T16:02:39.863Z,15.90
2023-05-14T16:05:08.588Z,15.80
2023-05-14T16:07:36.521Z,15.90
2023-05-14T16:10:04.069Z,15.90
2023-05-14T16:12:31.262Z,15.90
2023-05-14T16:14:58.496Z,15.90
2023-05-14T16:17:27.667Z,15.80
2023-05-14T16:19:56.241Z,15.80
2023-05-14T16:22:23.741Z,15.80
2023-05-14T16:24:51.022Z,15.70
2023-05-14T16:27:19.258Z,15.80
2023-05-14T16:29:46.341Z,15.70
2023-05-14T16:32:13.556Z,15.60
2023-05-14T16:34:40.763Z,15.60
2023-05-14T16:37:08.215Z,15.60
2023-05-14T16:39:35.322Z,15.50
2023-05-14T16:42:02.401Z,15.60
2023-05-14T16:44:29.405Z,15.50
2023-05-14T16:46:56.724Z,15.50
2023-05-14T16:49:23.866Z,15.60
2023-05-14T16:51:50.956Z,15.50
2023-05-14T16:54:17.975Z,15.50
2023-05-14T16:56:48.183Z,15.50
2023-05-14T16:59:16.120Z,15.50
2023-05-14T17:01:44.474Z,15.50
2023-05-14T17:04:12.828Z,15.50
2023-05-14T17:06:39.891Z,15.50
2023-05-14T17:09:07.082Z,15.40
2023-05-14T17:11:34.155Z,15.40
2023-05-14T17:14:01.292Z,15.30
2023-05-14T17:16:28.691Z,15.30
2023-05-14T17:18:55.919Z,15.30
2023-05-14T17:21:23.061Z,15.30
2023-05-14T17:23:50.296Z,15.20
2023-05-14T17:26:17.388Z,15.30
2023-05-14T17:28:44.587Z,15.30
2023-05-14T17:31:11.952Z,15.30
2023-05-14T17:33:39.247Z,15.30
2023-05-14T17:36:06.632Z,15.30
2023-05-14T17:38:34.948Z,15.20
2023-05-14T17:41:02.975Z,15.20
2023-05-14T17:43:30.776Z,15.20
2023-05-14T17:45:58.540Z,15.20
2023-05-14T17:48:25.942Z,15.20
2023-05-14T17:50:53.089Z,15.20
2023-05-14T17:53:20.323Z,15.20
2023-05-14T17:55:47.605Z,15.20
2023-05-14T17:58:16.097Z,15.10
2023-05-14T18:00:44.072Z,15.10
2023-05-14T18:03:11.572Z,15.10
2023-05-14T18:05:39.069Z,15.10
2023-05-14T18:08:06.171Z,15.00
2023-05-14T18:10:33.427Z,15.00
2023-05-14T18:13:00.516Z,14.90
2023-05-14T18:15:27.734Z,15.00
2023-05-14T18:17:55.060Z,15.00
2023-05-14T18:20:22.187Z,15.00
2023-05-14T18:22:52.443Z,15.00
2023-05-14T18:25:19.729Z,15.00
2023-05-14T18:27:47.103Z,14.90
2023-05-14T18:30:15.590Z,14.90
2023-05-14T18:32:44.767Z,14.90
2023-05-14T18:35:13.373Z,14.80
2023-05-14T18:37:41.121Z,14.80
2023-05-14T18:40:09.220Z,14.70
2023-05-14T18:42:36.292Z,14.80
2023-05-14T18:45:04.298Z,14.70
2023-05-14T18:47:32.087Z,14.60
2023-05-14T18:50:01.997Z,14.70
2023-05-14T18:52:29.838Z,14.60
2023-05-14T18:54:56.969Z,14.60
2023-05-14T18:57:24.190Z,14.40
2023-05-14T18:59:51.223Z,14.40
2023-05-14T19:02:18.401Z,14.30
2023-05-14T19:04:52.352Z,14.20
2023-05-14T19:07:21.532Z,14.10
2023-05-14T19:10:09.572Z,14.20
2023-05-14T19:12:36.792Z,13.60
2023-05-14T19:15:04.542Z,13.50
2023-05-14T19:17:32.907Z,13.60
2023-05-14T19:20:00.198Z,13.90
2023-05-14T19:22:27.281Z,13.90
2023-05-14T19:24:54.369Z,13.90
2023-05-14T19:27:21.752Z,13.90
2023-05-14T19:29:48.807Z,13.90
2023-05-14T19:32:16.446Z,13.90
2023-05-14T19:34:43.594Z,13.90
2023-05-14T19:37:10.703Z,13.80
2023-05-14T19:39:37.804Z,13.80
2023-05-14T19:42:05.178Z,13.70
2023-05-14T19:44:32.287Z,13.70
2023-05-14T19:46:59.371Z,13.60
2023-05-14T19:49:26.490Z,13.70
2023-05-14T19:51:53.517Z,13.70
2023-05-14T19:54:20.596Z,13.70
2023-05-14T19:56:47.938Z,13.50
2023-05-14T19:59:15.063Z,13.50
2023-05-14T20:01:42.151Z,13.50
2023-05-14T20:04:09.355Z,13.50
2023-05-14T20:06:37.004Z,13.50
2023-05-14T20:09:05.928Z,13.50
2023-05-14T20:11:33.023Z,13.40
2023-05-14T20:14:00.044Z,13.40
2023-05-14T20:16:28.657Z,13.40
2023-05-14T20:18:55.985Z,13.20
2023-05-14T20:21:23.193Z,13.20
2023-05-14T20:23:50.296Z,13.30
2023-05-14T20:26:17.357Z,13.40
2023-05-14T20:28:44.433Z,13.30
2023-05-14T20:31:11.598Z,13.30
2023-05-14T20:33:38.710Z,13.40
2023-05-14T20:36:05.899Z,13.40
2023-05-14T20:38:34.895Z,13.30
2023-05-14T20:41:02.000Z,13.30
2023-05-14T20:43:29.125Z,13.30
2023-05-14T20:45:58.018Z,13.30
2023-05-14T20:48:25.128Z,13.30
2023-05-14T20:50:52.215Z,13.20
2023-05-14T20:53:19.686Z,13.30
2023-05-14T20:55:46.811Z,13.20
2023-05-14T20:58:13.808Z,13.10
2023-05-14T21:00:41.021Z,13.10
2023-05-14T21:03:08.310Z,13.20
2023-05-14T21:05:35.505Z,13.10
2023-05-14T21:08:02.533Z,13.10
2023-05-14T21:10:29.622Z,13.20
2023-05-14T21:12:56.726Z,13.20
2023-05-14T21:15:23.988Z,13.20
2023-05-14T21:17:51.234Z,13.10
2023-05-14T21:20:18.452Z,13.20
2023-05-14T21:22:45.892Z,13.20
2023-05-14T21:25:12.981Z,13.20
2023-05-14T21:27:39.993Z,13.10
2023-05-14T21:30:07.655Z,13.10
2023-05-14T21:32:34.756Z,13.10
2023-05-14T21:35:01.780Z,13.10
2023-05-14T21:37:28.890Z,13.10
2023-05-14T21:39:55.936Z,13.10
2023-05-14T21:42:23.020Z,13.10
2023-05-14T21:44:50.119Z,13.10
2023-05-14T21:47:17.338Z,13.10
2023-05-14T21:49:44.577Z,13.10
2023-05-14T21:52:11.766Z,13.10
2023-05-14T21:54:38.794Z,13.10
2023-05-14T21:57:06.517Z,13.10
2023-05-14T21:59:34.048Z,12.90
2023-05-14T22:04:31.148Z,12.90
2023-05-14T22:06:58.259Z,12.90
2023-05-14T22:09:25.936Z,13.00
2023-05-14T22:11:53.074Z,13.00
2023-05-14T22:14:20.077Z,12.90
2023-05-14T22:16:47.505Z,12.90
2023-05-14T22:19:16.530Z,12.90
2023-05-14T22:21:43.829Z,12.90
2023-05-14T22:24:10.844Z,13.00
2023-05-14T22:26:37.926Z,12.90
2023-05-14T22:29:05.078Z,13.00
2023-05-14T22:31:32.150Z,13.00
2023-05-14T22:33:59.256Z,12.90
2023-05-14T22:36:26.375Z,13.00
2023-05-14T22:38:53.367Z,13.00
2023-05-14T22:41:22.018Z,13.00
2023-05-14T22:43:49.487Z,12.90
2023-05-14T22:46:16.644Z,12.70
2023-05-14T22:48:44.969Z,12.70
2023-05-14T22:51:11.958Z,12.80
2023-05-14T22:53:39.122Z,12.80
2023-05-14T22:56:06.441Z,12.80
2023-05-14T22:58:33.532Z,12.80
2023-05-14T23:01:00.907Z,12.80
2023-05-14T23:03:28.058Z,12.80
2023-05-14T23:05:55.142Z,12.90
2023-05-14T23:08:22.181Z,12.90
2023-05-14T23:10:49.284Z,12.80
2023-05-14T23:13:16.455Z,12.90
2023-05-14T23:15:44.102Z,12.80
2023-05-14T23:18:11.376Z,12.80
2023-05-14T23:20:38.457Z,12.70
2023-05-14T23:23:06.462Z,12.70
2023-05-14T23:25:33.564Z,12.70
2023-05-14T23:28:00.721Z,12.60
2023-05-14T23:30:27.720Z,12.70
2023-05-14T23:32:54.811Z,12.60
2023-05-14T23:35:22.032Z,12.60
2023-05-14T23:37:50.979Z,12.60
2023-05-14T23:40:18.389Z,12.60
2023-05-14T23:42:45.573Z,12.70
2023-05-14T23:45:13.682Z,12.70
2023-05-14T23:47:41.634Z,12.70
2023-05-14T23:50:08.937Z,12.70
2023-05-14T23:52:35.984Z,12.60
2023-05-14T23:55:03.167Z,12.60
2023-05-14T23:57:30.615Z,12.60
2023-05-14T23:59:57.710Z,12.60
